Airfield :
LOGIN :

Register | Disclaimer

   EN    FR    IT 

 










Legend :    VFR   Marginal VFR   IFR   Intensive IFR   Very Intensive IFR
Visi :
Ceiling :
>= 8 km
>= 3000ft
5 to 8 km
1000 to 3000 ft
1500m to 5 km
500 to 1000 ft
800 to 1500m
200 to 500 ft
< 800m
< 200 ft
Symbols :   Thunderstorms  Fog  Heavy snow  Heavy precipitations  Wind > 20 kt
SIGMETs :     Misc.  Thunderstorms  Icing  Turbulence  Mountain Waves  Volcanic Ashes






- Airport Elevation : 326 ft
- IATA code : LCG


LECO - A Coruna

CURRENT METAR :
  • 312230Z 20013KT 160V240 9999 SCT020 19/16 Q1020 NOSIG

EXPIRED METARs :
  • 312200Z 20014KT 150V260 9999 SCT020 19/16 Q1020 NOSIG
  • 312130Z 20015G25KT 150V240 9999 FEW020 19/16 Q1020 NOSIG
  • 312100Z 21016G27KT 170V250 9999 FEW020 19/16 Q1021 NOSIG
  • 312030Z 21015KT 160V260 9999 FEW025 19/16 Q1020 NOSIG
  • 312000Z 22017G28KT 190V280 9999 SCT025 19/16 Q1021 NOSIG

TAF COR TAF LECO
Valid from the 31 at 21:00 until the 01 at 21:00 UTC


312059Z 3121/0121 21012KT 9999 SCT015 BKN040 TX20/0115Z TN16/0107Z
TEMPO 3121/0121 22019G32KT
PROB30
TEMPO 3121/0109 BKN010
PROB40
TEMPO 3121/0107 3000 RA



MET'MAP, your aeronautical weather chart ! - Copyright ORBIFLY December 2007 - Disclaimer

ORBIFLY MET'MAP TEAM :

Programming & Development : Alexandra Zaïnal
Concept & original design : Baudouin d'Aumeries
Assistance for programming : Marc-Olivier Méhu
Technical & hardware support : Manuel Goepfert

Contact : metmap@orbifly.com




SOURCES & CREDITS :

   NOAA